Time;durP1;ratioP1;P1;durP2;ratioP2;P2;SDS_P1;SDS_P2;PMS_P1;PMS_P2;Temp;Humidity;BMP_temperature;BMP_pressure;BME280_temperature;BME280_humidity;BME280_pressure;Samples;Min_cycle;Max_cycle;Signal;HPM_P1;HPM_P2
2022/09/14 00:00:32;;;;;;;13.93;2.63;;;13.10;99.90;;;;;;4914342;28;207676;-67
2022/09/14 00:02:58;;;;;;;9.93;2.30;;;13.10;99.90;;;;;;4963819;28;20512;-67
2022/09/14 00:05:24;;;;;;;7.95;1.90;;;13.10;99.90;;;;;;4914775;28;206217;-66
2022/09/14 00:07:50;;;;;;;9.00;2.25;;;13.10;99.90;;;;;;4958652;28;20642;-67
2022/09/14 00:10:17;;;;;;;10.50;2.10;;;13.10;99.90;;;;;;4915572;28;219501;-68
2022/09/14 00:12:43;;;;;;;10.25;2.55;;;13.00;99.90;;;;;;4972284;28;20061;-67
2022/09/14 00:15:09;;;;;;;10.25;2.05;;;13.00;99.90;;;;;;4918487;28;210746;-68
2022/09/14 00:17:35;;;;;;;11.02;2.65;;;13.00;99.90;;;;;;4975960;28;20123;-69
2022/09/14 00:20:02;;;;;;;11.20;2.33;;;13.00;99.90;;;;;;4923576;28;210964;-68
2022/09/14 00:22:28;;;;;;;9.02;2.55;;;13.00;99.90;;;;;;4978531;28;20066;-69
2022/09/14 00:24:54;;;;;;;10.05;2.53;;;13.00;99.90;;;;;;4958436;28;20054;-68
2022/09/14 00:27:20;;;;;;;8.88;2.58;;;12.90;99.90;;;;;;4915328;28;206398;-67
2022/09/14 00:29:47;;;;;;;15.30;2.95;;;12.90;99.90;;;;;;4962070;28;20058;-68
2022/09/14 00:32:13;;;;;;;10.18;2.63;;;12.90;99.90;;;;;;4927714;28;210147;-68
2022/09/14 00:34:39;;;;;;;8.48;2.22;;;12.90;99.90;;;;;;4961770;28;20058;-67
2022/09/14 00:37:05;;;;;;;8.93;2.63;;;13.00;99.90;;;;;;4933136;28;202238;-67
2022/09/14 00:39:31;;;;;;;11.07;2.38;;;13.00;99.90;;;;;;4957100;28;20920;-68
2022/09/14 00:41:58;;;;;;;12.35;2.58;;;13.00;99.90;;;;;;4931152;28;213804;-68
2022/09/14 00:44:27;;;;;;;9.68;2.47;;;13.00;99.90;;;;;;4958948;28;20066;-68
2022/09/14 00:46:59;;;;;;;10.13;2.70;;;13.00;99.90;;;;;;4925383;28;206955;-68
2022/09/14 00:49:45;;;;;;;10.93;2.60;;;13.00;99.90;;;;;;4957336;28;20055;-68
2022/09/14 00:52:20;;;;;;;9.68;2.80;;;13.10;99.90;;;;;;4871172;29;206735;-68
2022/09/14 00:54:50;;;;;;;12.60;2.88;;;13.00;99.90;;;;;;4916141;29;20047;-68
2022/09/14 00:57:17;;;;;;;12.45;2.90;;;13.00;99.90;;;;;;4866054;29;206957;-67
2022/09/14 00:59:46;;;;;;;9.85;2.50;;;13.10;99.90;;;;;;4923702;29;20694;-69
2022/09/14 01:02:13;;;;;;;11.23;2.47;;;13.10;99.90;;;;;;4845919;29;208214;-67
2022/09/14 01:04:41;;;;;;;9.48;2.70;;;13.10;99.90;;;;;;4910517;29;20047;-67
2022/09/14 01:07:25;;;;;;;9.20;2.70;;;13.20;99.90;;;;;;4880703;29;169491;-68
2022/09/14 01:09:54;;;;;;;11.38;3.00;;;13.20;99.90;;;;;;4921895;29;20048;-67
2022/09/14 01:12:54;;;;;;;8.57;2.58;;;13.10;99.90;;;;;;4860249;29;209475;-67
2022/09/14 01:15:37;;;;;;;12.15;2.95;;;13.10;99.90;;;;;;4856762;29;206772;-68
2022/09/14 01:18:14;;;;;;;9.40;2.97;;;13.00;99.90;;;;;;4878780;29;20047;-68
2022/09/14 01:20:49;;;;;;;9.05;2.78;;;13.10;99.90;;;;;;4888821;29;211598;-67
2022/09/14 01:23:46;;;;;;;10.70;2.63;;;13.00;99.90;;;;;;4927579;28;20051;-66
2022/09/14 01:26:31;;;;;;;10.93;2.92;;;13.00;99.90;;;;;;4881930;28;208933;-69
2022/09/14 01:29:12;;;;;;;11.10;2.72;;;13.00;99.90;;;;;;4939049;28;20066;-67
2022/09/14 01:32:01;;;;;;;11.38;2.70;;;12.90;99.90;;;;;;4944111;28;207161;-67
2022/09/14 01:34:39;;;;;;;11.45;2.70;;;13.00;99.90;;;;;;4982199;28;20073;-67
2022/09/14 01:37:13;;;;;;;9.70;2.88;;;13.00;99.90;;;;;;4951195;28;209668;-67
2022/09/14 01:39:44;;;;;;;9.27;2.70;;;12.90;99.90;;;;;;4985403;28;20078;-67
2022/09/14 01:42:13;;;;;;;;;;;12.90;99.90;;;;;;4955697;28;211027;-67
2022/09/14 01:44:46;;;;;;;9.50;2.65;;;12.90;99.90;;;;;;4988738;28;19918;-68
2022/09/14 01:47:19;;;;;;;10.30;2.70;;;12.90;99.90;;;;;;4954578;28;212590;-68
2022/09/14 01:49:51;;;;;;;12.63;3.15;;;12.90;99.90;;;;;;4987339;28;20054;-67
2022/09/14 01:52:25;;;;;;;12.45;2.92;;;12.90;99.90;;;;;;4947019;28;208208;-68
2022/09/14 01:55:00;;;;;;;10.57;2.72;;;12.90;99.90;;;;;;4983393;28;20042;-68
2022/09/14 01:57:28;;;;;;;9.57;2.60;;;12.90;99.90;;;;;;4910572;28;206561;-68
2022/09/14 01:59:58;;;;;;;13.00;2.92;;;12.90;99.90;;;;;;4964566;28;20055;-68
2022/09/14 02:02:33;;;;;;;8.90;2.60;;;12.90;99.90;;;;;;4937782;28;140087;-67
2022/09/14 02:05:15;;;;;;;13.65;2.90;;;12.90;99.90;;;;;;4958910;28;208086;-68
2022/09/14 02:07:41;;;;;;;12.73;2.97;;;12.90;99.90;;;;;;4963521;28;207659;-67
2022/09/14 02:10:12;;;;;;;10.02;2.80;;;12.80;99.90;;;;;;4951769;28;208994;-68
2022/09/14 02:12:39;;;;;;;10.63;2.42;;;12.80;99.90;;;;;;4996074;28;20082;-65
2022/09/14 02:15:07;;;;;;;8.87;2.90;;;12.80;99.90;;;;;;4939103;28;219227;-67
2022/09/14 02:17:34;;;;;;;9.00;2.67;;;12.80;99.90;;;;;;4980525;28;20042;-67
2022/09/14 02:20:05;;;;;;;11.90;2.78;;;12.90;99.90;;;;;;4952403;28;218424;-67
2022/09/14 02:22:32;;;;;;;8.73;2.50;;;12.90;99.90;;;;;;4983111;28;20043;-67
2022/09/14 02:24:59;;;;;;;9.70;2.75;;;12.90;99.90;;;;;;4969885;28;209058;-68
2022/09/14 02:27:25;;;;;;;10.52;2.58;;;13.00;99.90;;;;;;4941479;28;206864;-68
2022/09/14 02:29:52;;;;;;;9.65;2.80;;;13.00;99.90;;;;;;4990239;28;20053;-68
2022/09/14 02:32:28;;;;;;;11.27;3.08;;;13.10;99.90;;;;;;4960842;28;206622;-68
2022/09/14 02:35:26;;;;;;;10.35;3.50;;;13.10;99.90;;;;;;4985180;28;20042;-68
2022/09/14 02:38:13;;;;;;;10.73;3.25;;;13.10;99.90;;;;;;4917974;28;218809;-68
2022/09/14 02:41:11;;;;;;;9.52;3.05;;;13.00;99.90;;;;;;4932054;28;207345;-69
2022/09/14 02:43:53;;;;;;;11.15;3.10;;;13.10;99.90;;;;;;4961691;28;20054;-69
2022/09/14 02:46:47;;;;;;;11.95;2.97;;;13.00;99.90;;;;;;4910468;28;207627;-68
2022/09/14 02:49:34;;;;;;;8.23;3.20;;;13.10;99.90;;;;;;4962368;28;20050;-67
2022/09/14 02:52:27;;;;;;;10.10;3.38;;;13.10;99.90;;;;;;4905528;28;207070;-68
2022/09/14 02:55:08;;;;;;;9.45;3.28;;;13.10;99.90;;;;;;4961945;28;20049;-68
2022/09/14 02:58:07;;;;;;;13.90;3.75;;;13.10;99.90;;;;;;4915934;28;207813;-67
2022/09/14 03:00:39;;;;;;;10.38;3.42;;;13.20;99.90;;;;;;4921122;28;228261;-67
2022/09/14 03:03:07;;;;;;;10.82;3.60;;;13.20;99.90;;;;;;4952760;28;20049;-67
2022/09/14 03:05:34;;;;;;;13.88;3.53;;;13.20;99.90;;;;;;4913402;28;222412;-68
2022/09/14 03:08:00;;;;;;;13.13;3.45;;;13.20;99.90;;;;;;4942265;28;20055;-68
2022/09/14 03:10:27;;;;;;;9.57;3.20;;;13.30;99.90;;;;;;4927648;28;212894;-68
2022/09/14 03:12:53;;;;;;;11.00;3.25;;;13.30;99.90;;;;;;4984145;28;20053;-67
2022/09/14 03:15:19;;;;;;;11.75;3.85;;;13.30;99.90;;;;;;4941086;28;209277;-68
2022/09/14 03:17:50;;;;;;;8.82;3.10;;;13.40;99.90;;;;;;4981677;28;20051;-68
2022/09/14 03:20:19;;;;;;;12.10;3.50;;;13.40;99.90;;;;;;4942887;28;209797;-68
2022/09/14 03:22:45;;;;;;;11.55;3.30;;;13.40;99.90;;;;;;4979490;28;20061;-68
2022/09/14 03:25:12;;;;;;;9.98;3.15;;;13.50;99.90;;;;;;4937715;28;211152;-67
2022/09/14 03:27:39;;;;;;;12.90;4.05;;;13.50;99.90;;;;;;4985219;28;20082;-68
2022/09/14 03:30:07;;;;;;;11.13;3.73;;;13.50;99.90;;;;;;4940511;28;208516;-67
2022/09/14 03:32:33;;;;;;;11.27;3.13;;;13.50;99.90;;;;;;4968921;28;20176;-68
2022/09/14 03:35:00;;;;;;;9.13;3.30;;;13.50;99.90;;;;;;4963892;28;209876;-69
2022/09/14 03:37:26;;;;;;;10.73;3.30;;;13.50;99.90;;;;;;4977998;28;205064;-68
2022/09/14 03:39:52;;;;;;;12.57;3.45;;;13.60;99.90;;;;;;4988836;28;20062;-69
2022/09/14 03:42:18;;;;;;;11.40;3.40;;;13.60;99.90;;;;;;4946655;28;209524;-68
2022/09/14 03:44:45;;;;;;;11.98;3.20;;;13.60;99.90;;;;;;4989178;28;20554;-68
2022/09/14 03:47:11;;;;;;;10.18;3.33;;;13.60;99.90;;;;;;4948685;28;213301;-68
2022/09/14 03:49:37;;;;;;;9.30;3.08;;;13.60;99.90;;;;;;4983744;28;20054;-67
2022/09/14 03:52:03;;;;;;;11.85;3.83;;;13.70;99.90;;;;;;4954218;28;211882;-67
2022/09/14 03:54:30;;;;;;;11.85;3.58;;;13.70;99.90;;;;;;4984603;28;20533;-68
2022/09/14 03:56:56;;;;;;;9.10;2.97;;;13.70;99.90;;;;;;4953121;28;212730;-68
2022/09/14 03:59:22;;;;;;;10.35;3.10;;;13.70;99.90;;;;;;4984123;28;20054;-67
2022/09/14 04:01:48;;;;;;;14.25;3.70;;;13.70;99.90;;;;;;4955114;28;208931;-68
2022/09/14 04:04:15;;;;;;;10.25;3.47;;;13.70;99.90;;;;;;4991320;28;20058;-67
2022/09/14 04:06:41;;;;;;;11.15;3.40;;;13.80;99.90;;;;;;4928564;28;209057;-68
2022/09/14 04:09:07;;;;;;;13.18;3.67;;;13.80;99.90;;;;;;4967568;28;20503;-68
2022/09/14 04:11:33;;;;;;;13.90;4.60;;;13.80;99.90;;;;;;4927077;28;213125;-68
2022/09/14 04:14:01;;;;;;;11.48;3.47;;;13.80;99.90;;;;;;4962436;28;20058;-68
2022/09/14 04:16:27;;;;;;;10.18;3.58;;;13.80;99.90;;;;;;4925882;28;209449;-67
2022/09/14 04:18:54;;;;;;;9.88;3.70;;;13.80;99.90;;;;;;4965788;28;20046;-67
2022/09/14 04:21:23;;;;;;;12.48;4.03;;;13.80;99.90;;;;;;4915295;28;207220;-67
2022/09/14 04:23:53;;;;;;;10.75;4.20;;;13.80;99.90;;;;;;4962907;28;20043;-68
2022/09/14 04:26:20;;;;;;;12.05;4.47;;;13.90;99.90;;;;;;4914924;28;208815;-67
2022/09/14 04:28:46;;;;;;;9.32;3.35;;;13.90;99.90;;;;;;4963064;28;20047;-67
2022/09/14 04:31:13;;;;;;;10.60;3.80;;;13.90;99.90;;;;;;4919113;28;209839;-67
2022/09/14 04:33:42;;;;;;;10.13;3.85;;;13.90;99.90;;;;;;4971276;28;20346;-66
2022/09/14 04:36:11;;;;;;;9.40;3.55;;;13.90;99.90;;;;;;4930716;28;210110;-67
2022/09/14 04:38:38;;;;;;;13.40;3.65;;;13.90;99.90;;;;;;4971594;28;20412;-68
2022/09/14 04:41:12;;;;;;;11.75;3.25;;;13.90;99.90;;;;;;4933694;28;209808;-68
2022/09/14 04:43:39;;;;;;;10.50;3.50;;;13.90;99.90;;;;;;4965248;28;20059;-67
2022/09/14 04:46:09;;;;;;;11.38;3.97;;;13.90;99.90;;;;;;4921861;28;221457;-67
2022/09/14 04:48:36;;;;;;;14.18;4.10;;;13.90;99.90;;;;;;4964345;28;20050;-66
2022/09/14 04:51:04;;;;;;;12.13;3.63;;;13.90;99.90;;;;;;4924061;28;216376;-68
2022/09/14 04:53:33;;;;;;;12.57;3.67;;;13.90;99.90;;;;;;4951644;28;20046;-67
2022/09/14 04:56:04;;;;;;;11.68;3.83;;;13.90;99.90;;;;;;4910858;28;210870;-67
2022/09/14 04:58:31;;;;;;;12.13;4.10;;;14.00;99.90;;;;;;4961072;28;20380;-67
2022/09/14 05:01:05;;;;;;;13.20;4.10;;;13.90;99.90;;;;;;4907425;28;197395;-68
2022/09/14 05:03:31;;;;;;;12.55;3.88;;;13.90;99.90;;;;;;4981882;28;20064;-68
2022/09/14 05:06:02;;;;;;;12.02;4.00;;;13.90;99.90;;;;;;4940486;28;204302;-67
2022/09/14 05:08:28;;;;;;;14.48;4.25;;;13.90;99.90;;;;;;4992439;28;20050;-68
2022/09/14 05:10:55;;;;;;;12.32;4.50;;;13.90;99.90;;;;;;4940049;28;206278;-68
2022/09/14 05:13:22;;;;;;;10.75;3.60;;;13.90;99.90;;;;;;4988951;28;20058;-68
2022/09/14 05:15:49;;;;;;;13.10;4.53;;;13.90;99.90;;;;;;4934793;28;209064;-68
2022/09/14 05:18:16;;;;;;;12.70;4.65;;;13.90;99.90;;;;;;4989390;28;20054;-68
2022/09/14 05:20:43;;;;;;;14.73;4.30;;;14.00;99.90;;;;;;4936095;28;209266;-68
2022/09/14 05:23:09;;;;;;;10.45;3.58;;;14.00;99.90;;;;;;4977306;28;21016;-68
2022/09/14 05:25:35;;;;;;;14.48;4.13;;;14.00;99.90;;;;;;4939621;28;209362;-68
2022/09/14 05:28:01;;;;;;;11.95;4.22;;;14.00;99.90;;;;;;4975602;28;20062;-68
2022/09/14 05:30:28;;;;;;;10.05;4.47;;;14.00;99.90;;;;;;4947727;28;210760;-68
2022/09/14 05:32:54;;;;;;;14.35;4.18;;;14.00;99.90;;;;;;4977246;28;20500;-67
2022/09/14 05:35:20;;;;;;;14.07;4.40;;;14.10;99.90;;;;;;4945718;28;147797;-66
2022/09/14 05:37:46;;;;;;;14.05;4.13;;;14.10;99.90;;;;;;4993760;28;20034;-67
2022/09/14 05:40:12;;;;;;;10.30;3.87;;;14.20;99.90;;;;;;4931208;28;210171;-67
2022/09/14 05:42:38;;;;;;;15.23;4.50;;;14.20;99.90;;;;;;4977799;28;20416;-67
2022/09/14 05:45:05;;;;;;;12.80;4.60;;;14.20;99.90;;;;;;4945092;28;209561;-66
2022/09/14 05:47:31;;;;;;;12.35;4.00;;;14.20;99.90;;;;;;4978157;28;20055;-67
2022/09/14 05:49:57;;;;;;;13.93;4.40;;;14.20;99.90;;;;;;4965114;28;210678;-66
2022/09/14 05:52:23;;;;;;;10.82;4.00;;;14.30;99.90;;;;;;4954013;28;206208;-68
2022/09/14 05:54:49;;;;;;;12.88;4.38;;;14.30;99.90;;;;;;4984179;28;20380;-68
2022/09/14 05:57:15;;;;;;;11.35;3.85;;;14.30;99.90;;;;;;4952685;28;215506;-68
2022/09/14 05:59:41;;;;;;;12.63;3.83;;;14.30;99.90;;;;;;4982230;28;20058;-69
2022/09/14 06:02:09;;;;;;;10.23;3.90;;;14.40;99.90;;;;;;4931653;28;222641;-68
2022/09/14 06:04:35;;;;;;;17.17;4.03;;;14.40;99.90;;;;;;4984290;28;20069;-67
2022/09/14 06:07:01;;;;;;;12.43;4.00;;;14.50;99.90;;;;;;4947073;28;210121;-67
2022/09/14 06:09:28;;;;;;;11.93;3.85;;;14.50;99.90;;;;;;4985749;28;20069;-68
2022/09/14 06:11:54;;;;;;;10.63;3.58;;;14.50;99.90;;;;;;4943512;28;215567;-68
2022/09/14 06:14:20;;;;;;;11.65;4.05;;;14.60;99.90;;;;;;4992135;28;20058;-68
2022/09/14 06:16:46;;;;;;;13.45;3.78;;;14.60;99.90;;;;;;4955162;28;231316;-69
2022/09/14 06:19:14;;;;;;;12.25;4.03;;;14.70;99.90;;;;;;4983889;28;20058;-69
2022/09/14 06:21:42;;;;;;;11.55;3.88;;;14.70;99.90;;;;;;4953318;28;216559;-69
2022/09/14 06:24:11;;;;;;;10.90;3.58;;;14.80;99.90;;;;;;4990576;28;20207;-69
2022/09/14 06:26:38;;;;;;;12.07;3.70;;;14.90;99.90;;;;;;4959031;28;209392;-69
2022/09/14 06:29:04;;;;;;;11.18;3.47;;;14.90;99.90;;;;;;4987172;28;20065;-69
2022/09/14 06:31:31;;;;;;;10.10;3.63;;;15.00;99.90;;;;;;4945982;28;209146;-70
2022/09/14 06:33:57;;;;;;;11.48;3.47;;;15.10;99.90;;;;;;4989645;28;20650;-69
2022/09/14 06:36:25;;;;;;;13.93;3.78;;;15.20;99.90;;;;;;4943081;28;213905;-69
2022/09/14 06:38:53;;;;;;;11.90;3.88;;;15.30;99.90;;;;;;4982896;28;20061;-69
2022/09/14 06:41:27;;;;;;;15.40;3.78;;;15.30;99.90;;;;;;4956035;28;208748;-69
2022/09/14 06:43:56;;;;;;;13.45;3.83;;;15.40;99.90;;;;;;4982422;28;20057;-69
2022/09/14 06:46:25;;;;;;;10.85;3.80;;;15.50;99.90;;;;;;4933986;28;217447;-69
2022/09/14 06:49:02;;;;;;;10.98;3.85;;;15.50;99.90;;;;;;4980054;28;20058;-70
2022/09/14 06:51:37;;;;;;;10.73;3.85;;;15.50;99.90;;;;;;4937098;28;212560;-69
2022/09/14 06:54:04;;;;;;;10.93;3.72;;;15.50;99.90;;;;;;4997838;28;20069;-70
2022/09/14 06:56:33;;;;;;;10.23;3.30;;;15.50;99.90;;;;;;4946825;28;205352;-69
2022/09/14 06:58:59;;;;;;;10.45;3.50;;;15.60;99.90;;;;;;4987862;28;20507;-70
2022/09/14 07:01:26;;;;;;;12.20;3.88;;;15.60;99.90;;;;;;4948752;28;209778;-70
2022/09/14 07:03:53;;;;;;;10.55;3.22;;;15.70;99.90;;;;;;4979046;28;20055;-69
2022/09/14 07:06:22;;;;;;;10.93;3.53;;;15.70;99.90;;;;;;4948736;28;195508;-68
2022/09/14 07:08:49;;;;;;;9.07;2.92;;;15.70;99.90;;;;;;4972816;28;20055;-69
2022/09/14 07:11:17;;;;;;;10.73;3.20;;;15.80;99.90;;;;;;4962566;28;224180;-69
2022/09/14 07:13:45;;;;;;;10.27;3.08;;;15.90;99.90;;;;;;4981773;28;20538;-69
2022/09/14 07:16:11;;;;;;;10.05;2.95;;;16.00;99.90;;;;;;4946477;28;206940;-69
2022/09/14 07:18:38;;;;;;;10.68;3.45;;;16.10;99.90;;;;;;4980320;28;20416;-69
2022/09/14 07:21:10;;;;;;;12.60;2.85;;;16.20;99.90;;;;;;4941514;28;216802;-69
2022/09/14 07:23:38;;;;;;;11.60;2.70;;;16.20;99.90;;;;;;4996255;28;20523;-67
2022/09/14 07:26:08;;;;;;;9.25;2.53;;;16.30;99.90;;;;;;4937121;28;211780;-69
2022/09/14 07:28:36;;;;;;;10.40;2.38;;;16.50;99.90;;;;;;4975897;28;20062;-69
2022/09/14 07:31:04;;;;;;;12.25;2.63;;;16.70;99.90;;;;;;4946589;28;175696;-69
2022/09/14 07:33:30;;;;;;;8.57;2.30;;;16.90;99.90;;;;;;4990112;28;20054;-68
2022/09/14 07:36:10;;;;;;;10.15;2.15;;;17.10;99.90;;;;;;4945799;28;206065;-67
2022/09/14 07:38:36;;;;;;;8.85;2.00;;;17.20;99.90;;;;;;4983085;28;20050;-69
2022/09/14 07:41:02;;;;;;;9.13;1.77;;;17.30;99.90;;;;;;4953661;28;209329;-69
2022/09/14 07:43:29;;;;;;;8.52;1.40;;;17.40;99.90;;;;;;4994655;28;20062;-68
2022/09/14 07:45:55;;;;;;;12.30;1.70;;;17.40;99.90;;;;;;4934005;28;207270;-69
2022/09/14 07:48:22;;;;;;;9.27;1.60;;;17.40;99.90;;;;;;4967016;28;20415;-69
2022/09/14 07:50:59;;;;;;;7.72;1.40;;;17.50;99.90;;;;;;4946751;28;209602;-69
2022/09/14 07:53:25;;;;;;;8.38;1.30;;;17.60;99.90;;;;;;4980864;28;20058;-68
2022/09/14 07:55:51;;;;;;;8.00;1.30;;;17.70;99.90;;;;;;4948230;28;188573;-69
2022/09/14 07:58:17;;;;;;;9.32;1.40;;;17.90;99.90;;;;;;4994753;28;20062;-69
2022/09/14 08:00:44;;;;;;;7.47;1.20;;;17.90;99.90;;;;;;4941801;28;210668;-69
2022/09/14 08:03:10;;;;;;;8.52;1.30;;;17.90;99.90;;;;;;4988025;28;20137;-69
2022/09/14 08:05:36;;;;;;;9.13;1.42;;;17.90;99.90;;;;;;4941554;28;206701;-69
2022/09/14 08:08:02;;;;;;;9.82;1.33;;;18.00;99.90;;;;;;4973679;28;20054;-69
2022/09/14 08:10:28;;;;;;;6.10;0.98;;;18.10;99.90;;;;;;4944394;28;214032;-69
2022/09/14 08:12:55;;;;;;;8.68;1.00;;;18.20;99.90;;;;;;4986281;28;20069;-71
2022/09/14 08:15:22;;;;;;;7.95;1.30;;;18.20;99.90;;;;;;4940265;28;210356;-69
2022/09/14 08:17:49;;;;;;;7.75;1.30;;;18.30;99.90;;;;;;4978577;28;20384;-69
2022/09/14 08:20:15;;;;;;;8.73;1.10;;;18.30;99.90;;;;;;4945167;28;211170;-69
2022/09/14 08:22:44;;;;;;;8.52;1.20;;;18.30;99.90;;;;;;4981544;28;20078;-69
2022/09/14 08:25:11;;;;;;;8.48;1.02;;;18.40;99.90;;;;;;4947936;28;208847;-69
2022/09/14 08:27:38;;;;;;;10.20;1.30;;;18.50;99.90;;;;;;4978343;28;20056;-70
2022/09/14 08:30:05;;;;;;;7.90;1.20;;;18.70;99.90;;;;;;4937939;28;208645;-70
2022/09/14 08:32:31;;;;;;;9.75;1.15;;;18.80;99.90;;;;;;4988357;28;20046;-72
2022/09/14 08:34:57;;;;;;;8.10;1.17;;;18.80;99.90;;;;;;4973015;28;211848;-68
2022/09/14 08:37:23;;;;;;;7.72;1.13;;;18.80;99.90;;;;;;4961339;28;115357;-70
2022/09/14 08:39:50;;;;;;;8.57;1.13;;;18.90;99.90;;;;;;4986912;28;20062;-69
2022/09/14 08:42:18;;;;;;;10.15;1.40;;;18.90;99.90;;;;;;4941969;28;213032;-70
2022/09/14 08:44:51;;;;;;;7.75;1.10;;;19.10;99.90;;;;;;4986403;28;20073;-70
2022/09/14 08:47:27;;;;;;;8.80;1.20;;;19.30;99.90;;;;;;4962272;28;150105;-70
2022/09/14 08:50:04;;;;;;;12.98;1.30;;;19.40;99.90;;;;;;4982722;28;20066;-70
2022/09/14 08:52:35;;;;;;;9.23;1.25;;;19.50;99.90;;;;;;4954836;28;211147;-70
2022/09/14 08:55:15;;;;;;;;;;;19.60;99.90;;;;;;4970664;28;205557;-70
2022/09/14 08:57:49;;;;;;;8.93;1.33;;;20.00;99.90;;;;;;4996592;28;19925;-70
2022/09/14 09:00:20;;;;;;;9.82;1.27;;;20.00;99.90;;;;;;4942953;28;209843;-70
2022/09/14 09:02:52;;;;;;;13.68;1.30;;;20.00;99.90;;;;;;4979077;28;20055;-70
2022/09/14 09:05:33;;;;;;;10.35;1.38;;;20.00;99.90;;;;;;4939599;28;210538;-69
2022/09/14 09:08:17;;;;;;;;;;;20.60;99.90;;;;;;4975727;28;20046;-67
2022/09/14 09:10:45;;;;;;;9.15;1.10;;;20.70;99.90;;;;;;4943149;28;209929;-71
2022/09/14 09:13:19;;;;;;;7.50;1.23;;;21.40;99.90;;;;;;4964197;28;20061;-71
2022/09/14 09:15:52;;;;;;;9.85;1.60;;;22.10;99.90;;;;;;4946101;28;221776;-69
2022/09/14 09:18:45;;;;;;;8.27;1.20;;;22.20;99.90;;;;;;4995558;28;20062;-69
2022/09/14 09:21:24;;;;;;;10.18;1.65;;;22.50;99.90;;;;;;4943671;28;211479;-69
2022/09/14 09:23:52;;;;;;;7.10;1.20;;;22.30;99.90;;;;;;4987417;28;20062;-69
2022/09/14 09:26:29;;;;;;;8.43;1.20;;;22.10;99.60;;;;;;4948690;28;211364;-70
2022/09/14 09:29:01;;;;;;;11.50;1.50;;;22.00;99.10;;;;;;4983390;28;20062;-69
2022/09/14 09:31:53;;;;;;;11.18;1.50;;;21.80;99.20;;;;;;4949371;28;213804;-68
2022/09/14 09:34:26;;;;;;;8.63;1.35;;;21.70;98.60;;;;;;4984813;28;20054;-69
2022/09/14 09:36:54;;;;;;;11.85;1.38;;;21.60;98.90;;;;;;4959254;28;210123;-68
2022/09/14 09:39:24;;;;;;;9.38;1.27;;;21.70;98.40;;;;;;4987598;28;20050;-68
2022/09/14 09:42:02;;;;;;;10.13;1.50;;;21.80;98.60;;;;;;4952905;28;221411;-69
2022/09/14 09:44:28;;;;;;;9.63;1.30;;;22.40;98.70;;;;;;4975749;28;20061;-68
2022/09/14 09:46:57;;;;;;;9.18;1.00;;;23.00;98.30;;;;;;4950581;28;211099;-69
2022/09/14 09:49:23;;;;;;;12.07;1.38;;;23.40;97.40;;;;;;4985020;28;20046;-69
2022/09/14 09:51:50;;;;;;;8.90;1.20;;;24.20;97.40;;;;;;4959291;28;205516;-69
2022/09/14 09:54:29;;;;;;;8.35;1.20;;;25.00;97.00;;;;;;4991750;28;20049;-70
2022/09/14 09:56:57;;;;;;;9.02;1.52;;;25.20;95.10;;;;;;4941543;28;206156;-68
2022/09/14 09:59:39;;;;;;;9.40;1.10;;;24.90;95.50;;;;;;4987103;28;20558;-69
2022/09/14 10:02:24;;;;;;;9.65;1.27;;;24.60;93.80;;;;;;4943386;28;208737;-68
2022/09/14 10:04:57;;;;;;;8.07;1.20;;;24.20;93.50;;;;;;4990238;28;20401;-70
2022/09/14 10:07:24;;;;;;;9.65;1.35;;;24.20;94.60;;;;;;4944368;28;205714;-69
2022/09/14 10:10:11;;;;;;;7.70;1.10;;;24.70;95.00;;;;;;4982906;28;20058;-69
2022/09/14 10:12:46;;;;;;;9.95;1.73;;;25.10;93.20;;;;;;4943508;28;205762;-69
2022/09/14 10:15:20;;;;;;;8.60;1.42;;;25.00;94.00;;;;;;4942328;28;210262;-68
2022/09/14 10:17:54;;;;;;;6.55;1.08;;;24.90;92.40;;;;;;4985681;28;20778;-68
2022/09/14 10:20:23;;;;;;;6.78;1.20;;;24.70;92.00;;;;;;4932531;28;219858;-68
2022/09/14 10:22:49;;;;;;;8.88;1.23;;;24.20;91.50;;;;;;4974548;28;20054;-69
2022/09/14 10:25:16;;;;;;;10.13;1.48;;;23.90;93.00;;;;;;4934445;28;218795;-69
2022/09/14 10:27:48;;;;;;;8.85;1.27;;;24.00;92.90;;;;;;4985846;28;20054;-68
2022/09/14 10:30:18;;;;;;;8.88;1.40;;;24.00;93.20;;;;;;4943023;28;209701;-68
2022/09/14 10:33:00;;;;;;;9.05;1.20;;;24.30;92.80;;;;;;4975830;28;20067;-67
2022/09/14 10:35:48;;;;;;;11.13;1.40;;;24.00;92.30;;;;;;4938013;28;212471;-69
2022/09/14 10:38:31;;;;;;;9.10;1.25;;;23.40;91.70;;;;;;4998145;28;20057;-68
2022/09/14 10:41:14;;;;;;;8.43;1.38;;;23.30;92.80;;;;;;4940416;28;220419;-68
2022/09/14 10:43:49;;;;;;;9.40;1.52;;;23.20;93.00;;;;;;4987606;28;20069;-67
2022/09/14 10:46:20;;;;;;;9.10;1.23;;;23.40;93.30;;;;;;4924551;28;207767;-68
2022/09/14 10:48:55;;;;;;;9.75;1.23;;;23.80;93.30;;;;;;4984011;28;20058;-68
2022/09/14 10:51:41;;;;;;;8.02;1.10;;;23.80;92.70;;;;;;4937359;28;197604;-68
2022/09/14 10:54:20;;;;;;;6.80;1.05;;;23.90;92.00;;;;;;4967819;28;20046;-68
2022/09/14 10:57:23;;;;;;;7.82;1.30;;;24.00;92.10;;;;;;4916767;28;209673;-68
2022/09/14 10:59:56;;;;;;;12.48;1.60;;;24.10;91.80;;;;;;4973977;28;20069;-68
2022/09/14 11:02:54;;;;;;;8.18;1.10;;;24.10;91.10;;;;;;4903864;28;206104;-69
2022/09/14 11:05:23;;;;;;;6.68;1.10;;;24.00;90.20;;;;;;4917817;28;216693;-68
2022/09/14 11:08:11;;;;;;;7.57;1.10;;;23.90;90.40;;;;;;4947882;28;20051;-68
2022/09/14 11:10:59;;;;;;;9.65;1.10;;;23.70;85.00;;;;;;4930392;28;206886;-69
2022/09/14 11:13:37;;;;;;;6.50;1.25;;;23.00;89.20;;;;;;4982267;28;20065;-68
2022/09/14 11:16:18;;;;;;;8.00;1.33;;;22.70;89.80;;;;;;4933737;28;186455;-68
2022/09/14 11:19:16;;;;;;;7.40;1.10;;;22.60;90.60;;;;;;4987496;28;20504;-69
2022/09/14 11:21:51;;;;;;;7.03;1.10;;;22.70;91.00;;;;;;4938070;28;209115;-69
2022/09/14 11:24:42;;;;;;;8.40;1.50;;;22.30;90.20;;;;;;4989560;28;20555;-69
2022/09/14 11:27:31;;;;;;;8.63;1.00;;;22.00;90.60;;;;;;4951305;28;210363;-69
2022/09/14 11:30:02;;;;;;;8.32;1.10;;;21.90;90.40;;;;;;4964792;28;216578;-69
2022/09/14 11:32:36;;;;;;;6.93;1.15;;;21.90;91.20;;;;;;4972383;28;155517;-68
2022/09/14 11:35:09;;;;;;;8.50;1.20;;;21.90;91.20;;;;;;4935613;28;213748;-69
2022/09/14 11:38:05;;;;;;;7.57;1.10;;;21.70;91.30;;;;;;4985916;28;20057;-69
2022/09/14 11:40:49;;;;;;;9.23;1.20;;;21.60;91.10;;;;;;4935180;28;211090;-69
2022/09/14 11:43:46;;;;;;;9.00;1.17;;;21.60;91.70;;;;;;4983872;28;20054;-69
2022/09/14 11:46:22;;;;;;;9.20;1.40;;;21.70;91.50;;;;;;4893479;29;206092;-69
2022/09/14 11:49:00;;;;;;;9.88;1.30;;;21.80;91.60;;;;;;4925358;28;20081;-70
2022/09/14 11:51:35;;;;;;;10.40;1.35;;;22.10;91.70;;;;;;4884913;29;205372;-69
2022/09/14 11:54:01;;;;;;;9.02;1.20;;;22.70;92.10;;;;;;4936948;28;20059;-69
2022/09/14 11:56:32;;;;;;;9.65;1.27;;;23.50;92.20;;;;;;4859116;29;206237;-70
2022/09/14 11:59:03;;;;;;;9.88;1.65;;;24.10;91.20;;;;;;4922400;29;20063;-69
2022/09/14 12:01:37;;;;;;;9.98;1.60;;;24.40;91.20;;;;;;4885207;29;206115;-69
2022/09/14 12:04:16;;;;;;;7.47;1.23;;;24.30;91.10;;;;;;4938511;28;20051;-70
2022/09/14 12:06:44;;;;;;;8.57;1.20;;;24.10;89.70;;;;;;4906542;28;206529;-68
2022/09/14 12:09:16;;;;;;;8.40;1.10;;;23.50;91.00;;;;;;4944014;28;20535;-68
2022/09/14 12:11:43;;;;;;;8.82;1.30;;;23.30;90.80;;;;;;4887068;28;206597;-69
2022/09/14 12:14:34;;;;;;;7.18;1.30;;;23.00;90.80;;;;;;4923171;29;20109;-69
2022/09/14 12:17:03;;;;;;;;;;;22.80;90.90;;;;;;4874708;29;218269;-69
2022/09/14 12:19:30;;;;;;;8.20;1.20;;;22.80;91.60;;;;;;4924976;28;19919;-69
2022/09/14 12:22:19;;;;;;;9.23;1.55;;;22.80;91.10;;;;;;4882914;28;211043;-69
2022/09/14 12:25:00;;;;;;;9.55;1.20;;;22.90;90.70;;;;;;4984386;28;20065;-69
2022/09/14 12:27:30;;;;;;;7.88;1.30;;;23.40;90.80;;;;;;4947322;28;211087;-70
2022/09/14 12:29:56;;;;;;;9.13;1.30;;;23.70;90.50;;;;;;4974727;28;206653;-70
2022/09/14 12:32:42;;;;;;;8.13;1.17;;;23.60;90.80;;;;;;4939269;28;104960;-70
2022/09/14 12:35:32;;;;;;;6.47;1.10;;;23.60;88.30;;;;;;4944053;28;209682;-70
2022/09/14 12:38:19;;;;;;;7.53;1.13;;;23.40;90.60;;;;;;4992128;28;20415;-69
2022/09/14 12:40:46;;;;;;;8.70;1.30;;;23.30;90.40;;;;;;4937995;28;212599;-71
2022/09/14 12:43:34;;;;;;;8.25;1.30;;;24.10;90.60;;;;;;4981499;28;20046;-72
2022/09/14 12:46:18;;;;;;;9.00;1.23;;;25.10;90.10;;;;;;4947081;28;211423;-70
2022/09/14 12:48:47;;;;;;;8.82;1.10;;;25.90;89.10;;;;;;4988673;28;20046;-71
2022/09/14 12:51:31;;;;;;;8.85;1.30;;;26.70;88.70;;;;;;4919777;28;212494;-70
2022/09/14 12:53:58;;;;;;;11.20;1.30;;;27.00;85.70;;;;;;4964804;28;20070;-69
2022/09/14 12:56:27;;;;;;;11.25;1.40;;;27.70;85.30;;;;;;4941259;28;210112;-71
2022/09/14 12:59:16;;;;;;;8.23;1.40;;;27.70;79.70;;;;;;4979193;28;20057;-70
2022/09/14 13:02:28;;;;;;;8.05;1.20;;;27.70;79.20;;;;;;4937132;28;212534;-69